Time;durP1;ratioP1;P1;durP2;ratioP2;P2;SDS_P1;SDS_P2;PMS_P1;PMS_P2;Temp;Humidity;BMP_temperature;BMP_pressure;BME280_temperature;BME280_humidity;BME280_pressure;Samples;Min_cycle;Max_cycle;Signal;HPM_P1;HPM_P2
2023/04/22 00:02:02;;;;;;;;;;;10.50;99.90;;;;;;4972600;28;20260;-76
2023/04/22 00:04:34;;;;;;;;;;;10.40;99.90;;;;;;4969122;28;19906;-76
2023/04/22 00:07:06;;;;;;;;;;;10.40;99.90;;;;;;4976509;28;19916;-77
2023/04/22 00:09:32;;;;;;;;;;;10.30;99.90;;;;;;4975416;28;19905;-76
2023/04/22 00:12:02;;;;;;;;;;;10.30;99.90;;;;;;4965388;28;19917;-76
2023/04/22 00:14:31;;;;;;;;;;;10.30;99.90;;;;;;4970937;28;19913;-76
2023/04/22 00:16:58;;;;;;;;;;;10.30;99.90;;;;;;4990280;28;19948;-76
2023/04/22 00:19:31;;;;;;;;;;;10.30;99.90;;;;;;4990206;28;20385;-76
2023/04/22 00:21:56;;;;;;;;;;;10.20;99.90;;;;;;4988194;28;19961;-76
2023/04/22 00:24:25;;;;;;;;;;;10.30;99.90;;;;;;4972749;28;19909;-76
2023/04/22 00:26:52;;;;;;;;;;;10.20;99.90;;;;;;4987561;28;20296;-76
2023/04/22 00:29:17;;;;;;;;;;;10.30;99.90;;;;;;4968284;28;21394;-76
2023/04/22 00:31:48;;;;;;;;;;;10.20;99.90;;;;;;4993154;28;19945;-76
2023/04/22 00:34:19;;;;;;;;;;;10.20;99.90;;;;;;4969162;28;20331;-76
2023/04/22 00:36:50;;;;;;;;;;;10.20;99.90;;;;;;4975066;28;20004;-76
2023/04/22 00:39:16;;;;;;;;;;;10.20;99.90;;;;;;4969900;28;19920;-76
2023/04/22 00:41:45;;;;;;;;;;;10.20;99.90;;;;;;4988992;28;20123;-79
2023/04/22 00:44:11;;;;;;;;;;;10.20;99.90;;;;;;4987028;28;19906;-76
2023/04/22 00:46:50;;;;;;;;;;;10.10;99.90;;;;;;4989914;28;20378;-77
2023/04/22 00:49:18;;;;;;;;;;;10.10;99.90;;;;;;4971598;28;19921;-76
2023/04/22 00:51:49;;;;;;;;;;;10.00;99.90;;;;;;4965920;28;20375;-76
2023/04/22 00:54:15;;;;;;;;;;;10.00;99.90;;;;;;4972164;28;19909;-77
2023/04/22 00:56:41;;;;;;;;;;;10.10;99.90;;;;;;4989713;28;19909;-76
2023/04/22 00:59:13;;;;;;;;;;;10.10;99.90;;;;;;4991400;28;19906;-76
2023/04/22 01:01:39;;;;;;;;;;;10.00;99.90;;;;;;4992952;28;19914;-76
2023/04/22 01:04:06;;;;;;;;;;;10.00;99.90;;;;;;4985338;28;19909;-76
2023/04/22 01:06:34;;;;;;;;;;;9.90;99.90;;;;;;4973066;28;19976;-76
2023/04/22 01:09:06;;;;;;;;;;;9.90;99.90;;;;;;4968164;28;19920;-76
2023/04/22 01:11:34;;;;;;;;;;;9.90;99.90;;;;;;4973432;28;19909;-76
2023/04/22 01:14:00;;;;;;;;;;;9.90;99.90;;;;;;4969662;28;20389;-76
2023/04/22 01:16:28;;;;;;;;;;;9.90;99.90;;;;;;4986056;28;19945;-76
2023/04/22 01:18:57;;;;;;;;;;;9.90;99.90;;;;;;4968205;28;19905;-76
2023/04/22 01:21:23;;;;;;;;;;;9.90;99.90;;;;;;4992670;28;19906;-76
2023/04/22 01:23:51;;;;;;;;;;;9.90;99.90;;;;;;4966278;28;19914;-76
2023/04/22 01:26:19;;;;;;;;;;;9.80;99.90;;;;;;4974998;28;20064;-76
2023/04/22 01:28:44;;;;;;;;;;;9.80;99.90;;;;;;4970621;28;19992;-76
2023/04/22 01:31:11;;;;;;;;;;;9.80;99.90;;;;;;4989795;28;19909;-75
2023/04/22 01:33:44;;;;;;;;;;;9.80;99.90;;;;;;4984437;28;20606;-76
2023/04/22 01:36:13;;;;;;;;;;;9.80;99.90;;;;;;4968256;28;19931;-76
2023/04/22 01:38:43;;;;;;;;;;;9.70;99.90;;;;;;4974768;28;19909;-75
2023/04/22 01:41:08;;;;;;;;;;;9.70;99.90;;;;;;4966878;28;19921;-76
2023/04/22 01:43:35;;;;;;;;;;;9.60;99.90;;;;;;4985206;28;19905;-77
2023/04/22 01:46:03;;;;;;;;;;;9.60;99.90;;;;;;4989236;28;20409;-76
2023/04/22 01:48:31;;;;;;;;;;;9.60;99.90;;;;;;4969330;28;20614;-76
2023/04/22 01:50:57;;;;;;;;;;;9.50;99.90;;;;;;4985990;28;20279;-76
2023/04/22 01:53:23;;;;;;;;;;;9.50;99.90;;;;;;4972072;28;19914;-76
2023/04/22 01:55:49;;;;;;;;;;;9.50;99.90;;;;;;4973510;28;20405;-76
2023/04/22 01:58:24;;;;;;;;;;;9.50;99.90;;;;;;4963176;28;19913;-76
2023/04/22 02:00:49;;;;;;;;;;;9.50;99.90;;;;;;4992388;28;19920;-76
2023/04/22 02:03:20;;;;;;;;;;;9.50;99.90;;;;;;4971448;28;19913;-76
2023/04/22 02:05:47;;;;;;;;;;;9.40;99.90;;;;;;4989689;28;20488;-76
2023/04/22 02:08:16;;;;;;;;;;;9.40;99.90;;;;;;4968308;28;19925;-76
2023/04/22 02:10:45;;;;;;;;;;;9.40;99.90;;;;;;4984867;28;19906;-76
2023/04/22 02:13:11;;;;;;;;;;;9.30;99.90;;;;;;4970956;28;20016;-76
2023/04/22 02:15:40;;;;;;;;;;;9.30;99.90;;;;;;4977799;28;19933;-76
2023/04/22 02:18:06;;;;;;;;;;;9.30;99.90;;;;;;4993251;28;19913;-77
2023/04/22 02:20:32;;;;;;;;;;;9.30;99.90;;;;;;4967002;28;19909;-75
2023/04/22 02:22:58;;;;;;;;;;;9.20;99.90;;;;;;4967326;28;19906;-76
2023/04/22 02:25:24;;;;;;;;;;;9.20;99.90;;;;;;4984734;28;19913;-76
2023/04/22 02:27:49;;;;;;;;;;;9.10;99.90;;;;;;4968324;28;20396;-76
2023/04/22 02:30:15;;;;;;;;;;;9.10;99.90;;;;;;4986559;28;19909;-76
2023/04/22 02:32:41;;;;;;;;;;;9.00;99.90;;;;;;4978020;28;19956;-75
2023/04/22 02:35:07;;;;;;;;;;;9.00;99.90;;;;;;4980560;28;19957;-76
2023/04/22 02:37:33;;;;;;;;;;;9.00;99.90;;;;;;4989786;28;19928;-76
2023/04/22 02:39:58;;;;;;;;;;;7.90;99.90;;;;;;4987198;28;19909;-75
2023/04/22 02:42:24;;;;;;;;;;;8.90;99.90;;;;;;4972159;28;20586;-76
2023/04/22 02:44:50;;;;;;;;;;;8.90;99.90;;;;;;4990262;28;19913;-75
2023/04/22 02:47:17;;;;;;;;;;;8.90;99.90;;;;;;4967768;28;19913;-76
2023/04/22 02:49:45;;;;;;;;;;;8.90;99.90;;;;;;4963049;28;19960;-76
2023/04/22 02:52:10;;;;;;;;;;;8.90;99.90;;;;;;4966562;28;20331;-76
2023/04/22 02:54:39;;;;;;;;;;;8.90;99.90;;;;;;4973645;28;19956;-76
2023/04/22 02:57:05;;;;;;;;;;;8.90;99.90;;;;;;4984765;28;19906;-75
2023/04/22 02:59:31;;;;;;;;;;;8.90;99.90;;;;;;4969588;28;19906;-76
2023/04/22 03:01:57;;;;;;;;;;;8.90;99.90;;;;;;4971386;28;19920;-76
2023/04/22 03:04:24;;;;;;;;;;;8.80;99.90;;;;;;4970742;28;19906;-75
2023/04/22 03:07:02;;;;;;;;;;;8.80;99.90;;;;;;4970913;28;20532;-76
2023/04/22 03:09:29;;;;;;;;;;;8.80;99.90;;;;;;5000687;28;19949;-76
2023/04/22 03:11:55;;;;;;;;;;;8.90;99.90;;;;;;4974279;28;19916;-76
2023/04/22 03:14:24;;;;;;;;;;;8.80;99.90;;;;;;4969282;28;19906;-76
2023/04/22 03:16:53;;;;;;;;;;;8.80;99.90;;;;;;4981396;28;19905;-76
2023/04/22 03:19:19;;;;;;;;;;;8.80;99.90;;;;;;4997819;28;19955;-76
2023/04/22 03:21:46;;;;;;;;;;;8.80;99.90;;;;;;4975228;28;19948;-76
2023/04/22 03:24:12;;;;;;;;;;;8.90;99.90;;;;;;4979524;28;19906;-75
2023/04/22 03:26:38;;;;;;;;;;;8.80;99.90;;;;;;4996024;28;20287;-76
2023/04/22 03:29:11;;;;;;;;;;;8.80;99.90;;;;;;4988094;28;19912;-75
2023/04/22 03:31:37;;;;;;;;;;;8.90;99.90;;;;;;4990560;28;20000;-76
2023/04/22 03:34:14;;;;;;;;;;;8.80;99.90;;;;;;5000577;28;19912;-76
2023/04/22 03:36:43;;;;;;;;;;;8.80;99.90;;;;;;4975911;28;20382;-76
2023/04/22 03:39:10;;;;;;;;;;;8.80;99.90;;;;;;4992239;28;19906;-76
2023/04/22 03:41:35;;;;;;;;;;;8.80;99.90;;;;;;4972058;28;20050;-75
2023/04/22 03:44:08;;;;;;;;;;;8.90;99.90;;;;;;4990321;28;20537;-75
2023/04/22 03:46:33;;;;;;;;;;;8.90;99.90;;;;;;4971962;28;20533;-76
2023/04/22 03:49:04;;;;;;;;;;;9.00;99.90;;;;;;4971953;28;19917;-76
2023/04/22 03:51:29;;;;;;;;;;;8.90;99.90;;;;;;4969811;28;19956;-75
2023/04/22 03:53:56;;;;;;;;;;;8.90;99.90;;;;;;4995669;28;19935;-76
2023/04/22 03:56:23;;;;;;;;;;;9.00;99.90;;;;;;4977608;28;19965;-75
2023/04/22 03:58:56;;;;;;;;;;;9.00;99.90;;;;;;4969911;28;19913;-76
2023/04/22 04:01:24;;;;;;;;;;;9.00;99.90;;;;;;4986462;28;19976;-75
2023/04/22 04:03:50;;;;;;;;;;;9.00;99.90;;;;;;4977293;28;19914;-76
2023/04/22 04:06:25;;;;;;;;;;;9.10;99.90;;;;;;4986493;28;19920;-75
2023/04/22 04:09:00;;;;;;;;;;;9.10;99.90;;;;;;4976504;28;19945;-75
2023/04/22 04:11:38;;;;;;;;;;;9.10;99.90;;;;;;4977715;28;19909;-76
2023/04/22 04:14:06;;;;;;;;;;;9.20;99.90;;;;;;4991234;28;19996;-76
2023/04/22 04:16:33;;;;;;;;;;;9.20;99.90;;;;;;4993143;28;19905;-76
2023/04/22 04:18:59;;;;;;;;;;;9.30;99.90;;;;;;4973995;28;19905;-75
2023/04/22 04:21:25;;;;;;;;;;;9.30;99.90;;;;;;4968697;28;19909;-76
2023/04/22 04:23:54;;;;;;;;;;;9.40;99.90;;;;;;4970416;28;19913;-76
2023/04/22 04:26:29;;;;;;;;;;;9.60;99.90;;;;;;4991380;28;20371;-75
2023/04/22 04:28:57;;;;;;;;;;;9.60;99.90;;;;;;4970361;28;19910;-76
2023/04/22 04:31:24;;;;;;;;;;;9.80;99.90;;;;;;4981868;28;20318;-76
2023/04/22 04:33:52;;;;;;;;;;;10.10;99.90;;;;;;4990094;28;19920;-75
2023/04/22 04:36:18;;;;;;;;;;;10.80;99.90;;;;;;4966236;28;19913;-77
2023/04/22 04:38:47;;;;;;;;;;;11.70;99.90;;;;;;4971332;28;19948;-75
2023/04/22 04:41:13;;;;;;;;;;;12.70;99.90;;;;;;4972919;28;19917;-75
2023/04/22 04:43:39;;;;;;;;;;;13.80;99.90;;;;;;4973059;28;19910;-76
2023/04/22 04:46:05;;;;;;;;;;;14.70;99.90;;;;;;4973704;28;19940;-76
2023/04/22 04:48:34;;;;;;;;;;;15.40;99.90;;;;;;4969185;28;20492;-74
2023/04/22 04:51:03;;;;;;;;;;;15.80;99.90;;;;;;4981816;28;19906;-74
2023/04/22 04:53:28;;;;;;;;;;;16.20;99.90;;;;;;4967402;28;19920;-74
2023/04/22 04:55:55;;;;;;;;;;;16.70;99.90;;;;;;4996274;28;19909;-75
2023/04/22 04:58:22;;;;;;;;;;;16.80;99.90;;;;;;4982828;28;19912;-75
2023/04/22 05:00:54;;;;;;;;;;;16.90;99.90;;;;;;4983723;28;19913;-75
2023/04/22 05:03:19;;;;;;;;;;;17.20;98.60;;;;;;4986488;28;19956;-73
2023/04/22 05:05:47;;;;;;;;;;;17.40;98.00;;;;;;4985580;28;19972;-76
2023/04/22 05:08:18;;;;;;;;;;;16.80;98.30;;;;;;4962653;28;19909;-76
2023/04/22 05:10:44;;;;;;;;;;;16.10;99.20;;;;;;4989430;28;19914;-75
2023/04/22 05:13:10;;;;;;;;;;;15.20;99.90;;;;;;4967442;28;19921;-75
2023/04/22 05:15:36;;;;;;;;;;;14.60;99.90;;;;;;4986864;28;19984;-76
2023/04/22 05:18:01;;;;;;;;;;;14.30;99.90;;;;;;4992386;28;19905;-75
2023/04/22 05:20:28;;;;;;;;;;;13.90;99.90;;;;;;4968152;28;19944;-75
2023/04/22 05:22:55;;;;;;;;;;;13.60;99.90;;;;;;4990767;28;19952;-76
2023/04/22 05:25:20;;;;;;;;;;;13.50;99.90;;;;;;4989423;28;19912;-75
2023/04/22 05:27:47;;;;;;;;;;;13.70;99.90;;;;;;4986528;28;19914;-75
2023/04/22 05:30:13;;;;;;;;;;;14.10;99.90;;;;;;4965551;28;19916;-75
2023/04/22 05:32:38;;;;;;;;;;;14.60;99.90;;;;;;4970728;28;19909;-75
2023/04/22 05:35:04;;;;;;;;;;;15.30;99.90;;;;;;4973962;28;19933;-75
2023/04/22 05:37:30;;;;;;;;;;;16.20;99.90;;;;;;4988184;28;19906;-75
2023/04/22 05:39:56;;;;;;;;;;;17.60;99.30;;;;;;4960623;28;19916;-75
2023/04/22 05:42:23;;;;;;;;;;;18.40;97.00;;;;;;4971720;28;19917;-76
2023/04/22 05:44:49;;;;;;;;;;;19.40;94.20;;;;;;4982933;28;19914;-76
2023/04/22 05:47:14;;;;;;;;;;;20.40;91.50;;;;;;4968346;28;19909;-76
2023/04/22 05:49:40;;;;;;;;;;;21.70;86.10;;;;;;4983452;28;20351;-76
2023/04/22 05:52:05;;;;;;;;;;;21.90;79.20;;;;;;4983112;28;20306;-76
2023/04/22 05:54:31;;;;;;;;;;;21.80;77.70;;;;;;4966814;28;19913;-75
2023/04/22 05:56:57;;;;;;;;;;;22.10;76.60;;;;;;4988111;28;20426;-76
2023/04/22 05:59:22;;;;;;;;;;;23.30;72.60;;;;;;4996748;28;19963;-76
2023/04/22 06:01:51;;;;;;;;;;;23.00;70.70;;;;;;4981788;28;19917;-76
2023/04/22 06:04:18;;;;;;;;;;;23.80;68.10;;;;;;4987283;28;21209;-73
2023/04/22 06:06:47;;;;;;;;;;;22.80;69.30;;;;;;4990762;28;19921;-76
2023/04/22 06:09:14;;;;;;;;;;;24.20;66.50;;;;;;4984196;28;19916;-76
2023/04/22 06:11:46;;;;;;;;;;;25.50;63.00;;;;;;4989133;28;19913;-76
2023/04/22 06:14:14;;;;;;;;;;;23.60;63.60;;;;;;4963564;28;19937;-78
2023/04/22 06:16:42;;;;;;;;;;;24.40;63.50;;;;;;4971142;28;19913;-78
2023/04/22 06:19:08;;;;;;;;;;;24.60;63.00;;;;;;4970567;28;19944;-76
2023/04/22 06:21:42;;;;;;;;;;;25.10;61.50;;;;;;4983203;28;19912;-76
2023/04/22 06:24:09;;;;;;;;;;;26.60;59.20;;;;;;4962022;28;20695;-76
2023/04/22 06:26:35;;;;;;;;;;;27.10;56.00;;;;;;4989143;28;19910;-76
2023/04/22 06:29:04;;;;;;;;;;;26.90;56.40;;;;;;4981342;28;19906;-73
2023/04/22 06:31:31;;;;;;;;;;;27.80;55.60;;;;;;4973672;28;19906;-73
2023/04/22 06:33:58;;;;;;;;;;;28.60;53.20;;;;;;4980532;28;20352;-73
2023/04/22 06:36:24;;;;;;;;;;;28.40;52.70;;;;;;4970980;28;19956;-72
2023/04/22 06:38:51;;;;;;;;;;;27.60;51.70;;;;;;4965966;28;19917;-72
2023/04/22 06:41:17;;;;;;;;;;;27.80;52.70;;;;;;4987108;28;19929;-73
2023/04/22 06:43:45;;;;;;;;;;;27.50;52.20;;;;;;4984072;28;19906;-73
2023/04/22 06:46:11;;;;;;;;;;;28.10;51.60;;;;;;4990836;28;19916;-74
2023/04/22 06:48:37;;;;;;;;;;;26.70;52.40;;;;;;4985034;28;19909;-74
2023/04/22 06:51:04;;;;;;;;;;;27.90;51.60;;;;;;4989366;28;20271;-74
2023/04/22 06:53:31;;;;;;;;;;;28.60;49.80;;;;;;4992057;28;19917;-76
2023/04/22 06:55:56;;;;;;;;;;;28.60;49.00;;;;;;4991544;28;19921;-74
2023/04/22 06:58:23;;;;;;;;;;;30.20;48.40;;;;;;4970662;28;20618;-76
2023/04/22 07:00:49;;;;;;;;;;;29.90;47.50;;;;;;4996247;28;20038;-74
2023/04/22 07:03:19;;;;;;;;;;;29.80;47.50;;;;;;4988036;28;21190;-76
2023/04/22 07:05:45;;;;;;;;;;;30.50;47.10;;;;;;4994350;28;19984;-75
2023/04/22 07:08:13;;;;;;;;;;;31.10;46.00;;;;;;4997709;28;19997;-73
2023/04/22 07:10:39;;;;;;;;;;;31.70;45.20;;;;;;4984228;28;20038;-72
2023/04/22 07:13:05;;;;;;;;;;;32.30;44.40;;;;;;4992765;28;19913;-70
2023/04/22 07:15:30;;;;;;;;;;;32.10;44.50;;;;;;4989984;28;19913;-71
2023/04/22 07:17:57;;;;;;;;;;;32.30;44.10;;;;;;4986275;28;20628;-74
2023/04/22 07:20:22;;;;;;;;;;;30.50;44.90;;;;;;4984169;28;19997;-74
2023/04/22 07:22:48;;;;;;;;;;;30.80;45.10;;;;;;4985509;28;19992;-71
2023/04/22 07:25:15;;;;;;;;;;;31.20;44.90;;;;;;4990338;28;19906;-74
2023/04/22 07:27:40;;;;;;;;;;;30.40;45.40;;;;;;4990961;28;19909;-74
2023/04/22 07:30:06;;;;;;;;;;;30.40;45.20;;;;;;4990501;28;19909;-71
2023/04/22 07:32:33;;;;;;;;;;;30.60;45.40;;;;;;4987214;28;19909;-74
2023/04/22 07:34:58;;;;;;;;;;;31.00;45.20;;;;;;4990636;28;19913;-74
2023/04/22 07:37:24;;;;;;;;;;;30.80;45.00;;;;;;4994210;28;19910;-72
2023/04/22 07:39:51;;;;;;;;;;;32.20;44.10;;;;;;4987502;28;19944;-74
2023/04/22 07:42:17;;;;;;;;;;;30.80;44.60;;;;;;4986610;28;20007;-70
2023/04/22 07:44:44;;;;;;;;;;;31.80;44.30;;;;;;4985804;28;19917;-72
2023/04/22 07:47:09;;;;;;;;;;;31.80;44.10;;;;;;4981574;28;19956;-72
2023/04/22 07:49:35;;;;;;;;;;;33.40;43.10;;;;;;4986953;28;19909;-74
2023/04/22 07:52:07;;;;;;;;;;;34.00;43.20;;;;;;4989138;28;19914;-74
2023/04/22 07:54:38;;;;;;;;;;;34.60;41.90;;;;;;4989714;28;19916;-73
2023/04/22 07:57:04;;;;;;;;;;;34.40;41.30;;;;;;4984136;28;19906;-73
2023/04/22 07:59:29;;;;;;;;;;;35.40;41.10;;;;;;4990761;28;19916;-72
2023/04/22 08:01:55;;;;;;;;;;;35.50;41.20;;;;;;4986522;28;19906;-73
2023/04/22 08:04:24;;;;;;;;;;;35.00;41.50;;;;;;4986258;28;20307;-71
2023/04/22 08:06:58;;;;;;;;;;;33.20;42.50;;;;;;4981345;28;19929;-72
2023/04/22 08:09:25;;;;;;;;;;;33.10;42.30;;;;;;4991528;28;19952;-73
2023/04/22 08:11:52;;;;;;;;;;;34.00;42.50;;;;;;4985921;28;19925;-73
2023/04/22 08:14:17;;;;;;;;;;;35.20;41.60;;;;;;4986516;28;19917;-73
2023/04/22 08:16:43;;;;;;;;;;;34.80;41.30;;;;;;4990856;28;19905;-72
2023/04/22 08:19:09;;;;;;;;;;;34.30;42.00;;;;;;4988654;28;19910;-74
2023/04/22 08:21:36;;;;;;;;;;;31.90;43.20;;;;;;4990820;28;19940;-77
2023/04/22 08:24:05;;;;;;;;;;;31.80;43.80;;;;;;4970448;28;19912;-77
2023/04/22 08:26:31;;;;;;;;;;;32.10;43.90;;;;;;4972208;28;20068;-75
2023/04/22 08:28:57;;;;;;;;;;;31.60;44.10;;;;;;4987043;28;20008;-76
2023/04/22 08:31:22;;;;;;;;;;;32.10;44.50;;;;;;4987632;28;19920;-74
2023/04/22 08:33:49;;;;;;;;;;;33.60;43.10;;;;;;4994289;28;19923;-77
2023/04/22 08:36:21;;;;;;;;;;;33.40;43.50;;;;;;4965495;28;19910;-74
2023/04/22 08:38:53;;;;;;;;;;;32.20;43.90;;;;;;4992698;28;20016;-72
2023/04/22 08:41:20;;;;;;;;;;;30.90;45.40;;;;;;4989006;28;19921;-74
2023/04/22 08:43:46;;;;;;;;;;;31.90;44.70;;;;;;4967893;28;19920;-74
2023/04/22 08:46:11;;;;;;;;;;;33.30;43.80;;;;;;4971098;28;19906;-74
2023/04/22 08:48:37;;;;;;;;;;;33.50;43.50;;;;;;4972817;28;19917;-73
2023/04/22 08:51:04;;;;;;;;;;;33.50;43.70;;;;;;4984671;28;19906;-73
2023/04/22 08:53:30;;;;;;;;;;;33.60;43.60;;;;;;4989210;28;19909;-72
2023/04/22 08:55:57;;;;;;;;;;;31.90;43.90;;;;;;4984929;28;19916;-76
2023/04/22 08:58:23;;;;;;;;;;;32.60;44.30;;;;;;4985873;28;19916;-71
2023/04/22 09:00:49;;;;;;;;;;;33.30;43.40;;;;;;4991986;28;19913;-71
2023/04/22 09:03:15;;;;;;;;;;;32.70;44.30;;;;;;4984292;28;19913;-74
2023/04/22 09:05:41;;;;;;;;;;;32.40;43.70;;;;;;4964448;28;19920;-74
2023/04/22 09:08:10;;;;;;;;;;;33.40;43.50;;;;;;4989930;28;19914;-74
2023/04/22 09:10:36;;;;;;;;;;;33.60;43.30;;;;;;4970264;28;19916;-70
2023/04/22 09:13:04;;;;;;;;;;;33.40;43.50;;;;;;4992132;28;19920;-74
2023/04/22 09:15:30;;;;;;;;;;;31.90;43.60;;;;;;4983387;28;19944;-72
2023/04/22 09:17:57;;;;;;;;;;;32.70;44.50;;;;;;4987581;28;19949;-73
2023/04/22 09:20:32;;;;;;;;;;;32.80;44.10;;;;;;4965892;28;19906;-73
2023/04/22 09:23:02;;;;;;;;;;;33.50;43.40;;;;;;4997721;28;19909;-73
2023/04/22 09:25:27;;;;;;;;;;;33.70;43.10;;;;;;4989814;28;19935;-73
2023/04/22 09:27:56;;;;;;;;;;;34.20;42.50;;;;;;4976482;28;20267;-87
2023/04/22 09:30:32;;;;;;;;;;;34.30;43.40;;;;;;4970660;28;19940;-76
2023/04/22 09:32:59;;;;;;;;;;;33.30;43.90;;;;;;4998555;28;20338;-80
2023/04/22 09:35:39;;;;;;;;;;;33.80;43.30;;;;;;4972398;28;20000;-78
2023/04/22 09:38:07;;;;;;;;;;;34.40;42.50;;;;;;4968651;28;19905;-78
2023/04/22 09:40:33;;;;;;;;;;;33.80;43.00;;;;;;4985788;28;19941;-75
2023/04/22 09:43:03;;;;;;;;;;;32.40;43.90;;;;;;4993348;28;19905;-79
2023/04/22 09:45:41;;;;;;;;;;;31.10;44.90;;;;;;4974762;28;20299;-79
2023/04/22 09:48:19;;;;;;;;;;;32.30;45.20;;;;;;4987821;28;19927;-78
2023/04/22 09:50:52;;;;;;;;;;;33.10;44.00;;;;;;4987388;28;20008;-77
2023/04/22 09:53:20;;;;;;;;;;;33.50;44.90;;;;;;4970416;28;19918;-76
2023/04/22 09:55:49;;;;;;;;;;;34.10;43.40;;;;;;4969944;28;20453;-80
2023/04/22 09:58:16;;;;;;;;;;;34.70;43.90;;;;;;4979995;28;19910;-70
2023/04/22 10:00:47;;;;;;;;;;;34.70;43.30;;;;;;4986138;28;19960;-72
2023/04/22 10:03:14;;;;;;;;;;;34.70;43.00;;;;;;4980429;28;19905;-73
2023/04/22 10:05:39;;;;;;;;;;;31.70;44.00;;;;;;4981353;28;19910;-68
2023/04/22 10:08:06;;;;;;;;;;;32.10;45.30;;;;;;4985834;28;19953;-69
2023/04/22 10:10:32;;;;;;;;;;;31.10;44.50;;;;;;4987355;28;20270;-72
2023/04/22 10:12:58;;;;;;;;;;;28.30;47.50;;;;;;4983926;28;20413;-71
2023/04/22 10:15:24;;;;;;;;;;;27.20;49.00;;;;;;4980535;28;20520;-73
2023/04/22 10:17:51;;;;;;;;;;;26.60;49.80;;;;;;4978314;28;19912;-71
2023/04/22 10:20:17;;;;;;;;;;;26.50;50.70;;;;;;4990783;28;19913;-72
2023/04/22 10:22:44;;;;;;;;;;;26.70;49.50;;;;;;4964137;28;19916;-80
2023/04/22 10:25:11;;;;;;;;;;;27.30;49.60;;;;;;4988815;28;19905;-77
2023/04/22 10:27:51;;;;;;;;;;;28.20;49.90;;;;;;4969376;28;19912;-76
2023/04/22 10:30:32;;;;;;;;;;;29.90;46.90;;;;;;4966147;28;19960;-76
2023/04/22 10:33:37;;;;;;;;;;;32.80;45.00;;;;;;4984396;28;19916;-74
2023/04/22 10:36:07;;;;;;;;;;;32.00;44.60;;;;;;4969236;28;19910;-73
2023/04/22 10:38:36;;;;;;;;;;;30.30;46.00;;;;;;4984037;28;19906;-74
2023/04/22 10:41:04;;;;;;;;;;;28.00;47.10;;;;;;4963732;28;20081;-75
2023/04/22 10:43:52;;;;;;;;;;;27.20;49.00;;;;;;4984457;28;19918;-78
2023/04/22 10:46:38;;;;;;;;;;;27.30;48.50;;;;;;4983333;28;19913;-74
2023/04/22 10:49:11;;;;;;;;;;;29.40;47.30;;;;;;4983220;28;19948;-74
2023/04/22 10:51:41;;;;;;;;;;;31.20;46.30;;;;;;4987521;28;19906;-74
2023/04/22 10:54:35;;;;;;;;;;;31.30;44.40;;;;;;4985321;28;19906;-76
2023/04/22 10:57:14;;;;;;;;;;;31.50;44.70;;;;;;4964478;28;19910;-76
2023/04/22 10:59:42;;;;;;;;;;;29.00;46.20;;;;;;4980556;28;20020;-78
2023/04/22 11:02:10;;;;;;;;;;;26.10;49.00;;;;;;4969552;28;19909;-75
2023/04/22 11:04:39;;;;;;;;;;;24.30;51.30;;;;;;4964827;28;19936;-80
2023/04/22 11:07:29;;;;;;;;;;;23.30;53.10;;;;;;4967677;28;20275;-80
2023/04/22 11:10:15;;;;;;;;;;;22.70;54.20;;;;;;4967238;28;19910;-82
2023/04/22 11:12:43;;;;;;;;;;;22.80;55.00;;;;;;4988988;28;19914;-81
2023/04/22 11:15:25;;;;;;;;;;;22.70;55.10;;;;;;4982158;28;19929;-81
2023/04/22 11:17:54;;;;;;;;;;;22.90;55.50;;;;;;4977881;28;19910;-80
2023/04/22 11:20:22;;;;;;;;;;;23.10;54.70;;;;;;4968971;28;19910;-80
2023/04/22 11:22:56;;;;;;;;;;;22.90;55.00;;;;;;4984519;28;19999;-80
2023/04/22 11:25:23;;;;;;;;;;;22.80;55.60;;;;;;4972306;28;19906;-80
2023/04/22 11:27:53;;;;;;;;;;;22.70;55.00;;;;;;4983507;28;19948;-80
2023/04/22 11:30:19;;;;;;;;;;;22.70;55.60;;;;;;4969248;28;20008;-81
2023/04/22 11:32:49;;;;;;;;;;;22.60;55.60;;;;;;4976082;28;19924;-80
2023/04/22 11:35:16;;;;;;;;;;;22.30;55.40;;;;;;4979667;28;19921;-80
2023/04/22 11:40:32;;;;;;;;;;;22.30;56.00;;;;;;4987528;28;19913;-79
2023/04/22 11:43:02;;;;;;;;;;;22.60;54.80;;;;;;4969312;28;20353;-81
2023/04/22 11:45:38;;;;;;;;;;;22.80;54.60;;;;;;4996686;28;19910;-80
2023/04/22 11:48:08;;;;;;;;;;;22.80;55.10;;;;;;4971314;28;20314;-82
2023/04/22 11:50:39;;;;;;;;;;;23.00;55.00;;;;;;4973704;28;19913;-80
2023/04/22 11:53:24;;;;;;;;;;;22.70;54.80;;;;;;4969726;28;19909;-80
2023/04/22 11:55:54;;;;;;;;;;;22.70;54.80;;;;;;4975731;28;19913;-80
2023/04/22 11:58:27;;;;;;;;;;;22.40;55.50;;;;;;4962937;28;20351;-79
2023/04/22 12:00:58;;;;;;;;;;;22.30;56.00;;;;;;4970278;28;19916;-78
2023/04/22 12:03:28;;;;;;;;;;;21.70;55.90;;;;;;4995035;28;19986;-78
2023/04/22 12:05:56;;;;;;;;;;;21.30;57.50;;;;;;4976242;28;19906;-78
2023/04/22 12:08:43;;;;;;;;;;;21.50;56.70;;;;;;4966453;28;19914;-79
2023/04/22 12:11:09;;;;;;;;;;;21.50;56.40;;;;;;4990658;28;19906;-78
2023/04/22 12:13:35;;;;;;;;;;;21.70;56.80;;;;;;4967605;28;19913;-78
2023/04/22 12:16:03;;;;;;;;;;;21.80;56.90;;;;;;4998469;28;19905;-79
2023/04/22 12:18:52;;;;;;;;;;;21.80;55.90;;;;;;4972424;28;19906;-79
2023/04/22 12:21:27;;;;;;;;;;;22.00;57.60;;;;;;4988852;28;19960;-77
2023/04/22 12:24:03;;;;;;;;;;;22.00;55.60;;;;;;4986579;28;19999;-79
2023/04/22 12:26:30;;;;;;;;;;;22.20;55.60;;;;;;4989828;28;19912;-79
2023/04/22 12:28:57;;;;;;;;;;;21.70;56.30;;;;;;4968148;28;19909;-76
2023/04/22 12:31:27;;;;;;;;;;;21.50;56.60;;;;;;4977566;28;19913;-77
2023/04/22 12:33:55;;;;;;;;;;;21.50;56.10;;;;;;4993336;28;19913;-81
2023/04/22 12:36:31;;;;;;;;;;;21.70;56.70;;;;;;4973204;28;19917;-76
2023/04/22 12:38:56;;;;;;;;;;;21.90;56.90;;;;;;4968822;28;19910;-77
2023/04/22 12:41:22;;;;;;;;;;;22.10;56.90;;;;;;4990502;28;20059;-78
2023/04/22 12:43:49;;;;;;;;;;;22.20;56.30;;;;;;4973124;28;19916;-77
2023/04/22 12:46:23;;;;;;;;;;;22.40;55.70;;;;;;4966339;28;20006;-73
2023/04/22 12:48:59;;;;;;;;;;;22.10;55.90;;;;;;4996813;28;19921;-77
2023/04/22 12:51:36;;;;;;;;;;;22.00;55.80;;;;;;4986200;28;19984;-77
2023/04/22 12:54:02;;;;;;;;;;;21.80;56.10;;;;;;4993664;28;19909;-77
2023/04/22 12:56:27;;;;;;;;;;;21.70;56.10;;;;;;4992141;28;19932;-77
2023/04/22 12:58:53;;;;;;;;;;;21.60;56.30;;;;;;4981797;28;19960;-77
2023/04/22 13:01:24;;;;;;;;;;;21.50;56.60;;;;;;4982428;28;20363;-78
2023/04/22 13:03:51;;;;;;;;;;;21.80;57.10;;;;;;4989784;28;19914;-78
2023/04/22 13:06:17;;;;;;;;;;;22.20;56.90;;;;;;4987743;28;19953;-79
2023/04/22 13:08:46;;;;;;;;;;;22.30;55.20;;;;;;4972340;28;19944;-77
2023/04/22 13:11:20;;;;;;;;;;;22.10;55.20;;;;;;4969965;28;19967;-78
2023/04/22 13:13:48;;;;;;;;;;;21.90;55.80;;;;;;4967142;28;19918;-77
2023/04/22 13:16:14;;;;;;;;;;;21.90;56.20;;;;;;4965400;28;19928;-77
2023/04/22 13:18:46;;;;;;;;;;;21.70;56.10;;;;;;4970994;28;19957;-77
2023/04/22 13:21:14;;;;;;;;;;;21.70;56.10;;;;;;4984672;28;19984;-78
2023/04/22 13:23:44;;;;;;;;;;;21.90;56.30;;;;;;4971144;28;19910;-78
2023/04/22 13:26:11;;;;;;;;;;;22.00;55.50;;;;;;4971753;28;19906;-78
2023/04/22 13:28:37;;;;;;;;;;;21.90;55.80;;;;;;4987707;28;20535;-77
2023/04/22 13:31:03;;;;;;;;;;;21.80;55.60;;;;;;4968121;28;19916;-77
2023/04/22 13:33:31;;;;;;;;;;;21.70;56.60;;;;;;4990164;28;19913;-77
2023/04/22 13:35:57;;;;;;;;;;;21.70;56.70;;;;;;4982090;28;19906;-78
2023/04/22 13:38:23;;;;;;;;;;;21.70;55.50;;;;;;4982422;28;19910;-78
2023/04/22 13:40:50;;;;;;;;;;;21.70;55.50;;;;;;4985447;28;19913;-78
2023/04/22 13:43:16;;;;;;;;;;;21.60;55.70;;;;;;4988850;28;20641;-80
2023/04/22 13:45:47;;;;;;;;;;;21.50;55.60;;;;;;4971306;28;19905;-79
2023/04/22 13:48:15;;;;;;;;;;;21.40;55.10;;;;;;4974366;28;19906;-78
2023/04/22 13:50:45;;;;;;;;;;;21.40;54.70;;;;;;4988035;28;19909;-80
2023/04/22 13:53:18;;;;;;;;;;;21.70;56.20;;;;;;4985308;28;19914;-78
2023/04/22 13:55:45;;;;;;;;;;;21.60;55.80;;;;;;4973315;28;20019;-77
2023/04/22 13:58:11;;;;;;;;;;;21.60;56.30;;;;;;4969067;28;19906;-78
2023/04/22 14:00:45;;;;;;;;;;;21.60;56.40;;;;;;4987364;28;19905;-77
2023/04/22 14:03:11;;;;;;;;;;;21.60;56.20;;;;;;4965050;28;19905;-78
2023/04/22 14:05:39;;;;;;;;;;;21.50;56.80;;;;;;4984433;28;20302;-78
2023/04/22 14:08:14;;;;;;;;;;;21.50;56.50;;;;;;4989762;28;19905;-78
2023/04/22 14:10:42;;;;;;;;;;;21.60;56.20;;;;;;4982061;28;19909;-79
2023/04/22 14:13:09;;;;;;;;;;;21.70;56.30;;;;;;4966445;28;20011;-79
2023/04/22 14:15:49;;;;;;;;;;;21.60;56.30;;;;;;4983632;28;19906;-78
2023/04/22 14:18:15;;;;;;;;;;;21.50;56.50;;;;;;4968964;28;19916;-78
2023/04/22 14:20:47;;;;;;;;;;;21.40;56.70;;;;;;4986540;28;20001;-78
2023/04/22 14:23:15;;;;;;;;;;;21.40;56.60;;;;;;4965433;28;19906;-78
2023/04/22 14:25:42;;;;;;;;;;;21.40;56.70;;;;;;4989392;28;19985;-78
2023/04/22 14:28:10;;;;;;;;;;;21.50;56.90;;;;;;4965735;28;20163;-78
2023/04/22 14:30:38;;;;;;;;;;;21.60;56.90;;;;;;4971266;28;20217;-78
2023/04/22 14:33:05;;;;;;;;;;;21.50;56.80;;;;;;4984435;28;19914;-78